Time;durP1;ratioP1;P1;durP2;ratioP2;P2;SDS_P1;SDS_P2;PMS_P1;PMS_P2;Temp;Humidity;BMP_temperature;BMP_pressure;BME280_temperature;BME280_humidity;BME280_pressure;Samples;Min_cycle;Max_cycle;Signal;HPM_P1;HPM_P2
2022/09/01 00:01:28;;;;;;;2.90;2.80;;;;;;;14.08;97.72;102516.00;5053547;28;20451;-51
2022/09/01 00:04:03;;;;;;;3.20;3.00;;;;;;;14.10;97.32;102518.47;5053480;28;20431;-50
2022/09/01 00:06:32;;;;;;;2.93;2.83;;;;;;;14.09;97.34;102517.69;5052945;28;20505;-43
2022/09/01 00:09:04;;;;;;;2.87;2.77;;;;;;;14.07;96.90;102527.72;5053308;28;20908;-45
2022/09/01 00:11:33;;;;;;;2.97;2.87;;;;;;;14.02;96.29;102515.84;5043554;28;20802;-49
2022/09/01 00:14:02;;;;;;;3.43;3.13;;;;;;;13.92;95.23;102517.94;5048470;28;20475;-52
2022/09/01 00:16:31;;;;;;;3.20;3.00;;;;;;;13.80;94.11;102517.47;5052685;28;20477;-55
2022/09/01 00:18:59;;;;;;;3.43;3.23;;;;;;;13.68;93.83;102516.19;5053253;28;20423;-48
2022/09/01 00:21:30;;;;;;;3.73;3.13;;;;;;;13.55;93.30;102527.47;5053012;28;20459;-44
2022/09/01 00:23:59;;;;;;;2.87;2.77;;;;;;;13.45;93.19;102523.31;5053113;28;20427;-50
2022/09/01 00:26:27;;;;;;;2.83;2.73;;;;;;;13.32;92.99;102519.31;5052631;28;20843;-48
2022/09/01 00:28:56;;;;;;;3.60;3.40;;;;;;;13.23;92.95;102524.88;5053062;28;20432;-49
2022/09/01 00:31:24;;;;;;;3.27;3.17;;;;;;;13.13;93.40;102522.38;5052912;28;20871;-47
2022/09/01 00:33:52;;;;;;;3.73;3.43;;;;;;;13.09;93.91;102514.84;5052493;28;20471;-47
2022/09/01 00:36:21;;;;;;;3.43;3.33;;;;;;;13.10;95.55;102506.66;5052555;28;20459;-50
2022/09/01 00:38:49;;;;;;;4.10;3.80;;;;;;;13.13;96.65;102518.88;5052720;28;20432;-51
2022/09/01 00:41:20;;;;;;;3.67;3.53;;;;;;;13.17;97.69;102520.22;5052835;28;20455;-47
2022/09/01 00:43:49;;;;;;;4.03;3.73;;;;;;;13.21;99.15;102516.16;5044225;28;20811;-47
2022/09/01 00:46:20;;;;;;;4.07;3.87;;;;;;;13.21;99.50;102519.69;5049505;28;20462;-52
2022/09/01 00:48:55;;;;;;;3.80;3.70;;;;;;;13.18;99.35;102519.19;5052598;28;20427;-48
2022/09/01 00:51:23;;;;;;;3.33;3.13;;;;;;;13.11;99.06;102520.88;5051000;28;20465;-48
2022/09/01 00:53:54;;;;;;;3.73;3.53;;;;;;;13.06;98.77;102512.47;5040448;28;20472;-51
2022/09/01 00:56:22;;;;;;;4.23;3.80;;;;;;;12.98;98.71;102513.34;5050149;28;20459;-46
2022/09/01 00:58:50;;;;;;;4.03;3.93;;;;;;;12.95;98.72;102516.34;5052507;28;20943;-51
2022/09/01 01:01:19;;;;;;;4.60;4.30;;;;;;;12.96;99.80;102517.19;5052551;28;20460;-45
2022/09/01 01:03:47;;;;;;;5.07;4.87;;;;;;;12.99;100.00;102511.50;5052181;28;20515;-46
2022/09/01 01:06:18;;;;;;;4.40;4.13;;;;;;;13.01;100.00;102506.81;5051793;28;20459;-51
2022/09/01 01:08:57;;;;;;;4.10;4.00;;;;;;;12.97;100.00;102502.78;5052349;28;20521;-47
2022/09/01 01:11:27;;;;;;;4.80;3.80;;;;;;;12.95;100.00;102500.28;5052140;28;20455;-51
2022/09/01 01:13:57;;;;;;;4.40;3.40;;;;;;;12.87;100.00;102504.81;5051984;28;20900;-46
2022/09/01 01:16:29;;;;;;;3.57;3.27;;;;;;;12.75;100.00;102496.31;5051716;28;20724;-47
2022/09/01 01:18:56;;;;;;;3.77;3.67;;;;;;;12.64;100.00;102488.59;5052315;28;20432;-45
2022/09/01 01:24:24;;;;;;;3.90;3.60;;;;;;;12.62;100.00;102502.16;5051297;28;20514;-48
2022/09/01 01:26:53;;;;;;;3.87;3.67;;;;;;;12.62;100.00;102487.94;5052106;28;20434;-50
2022/09/01 01:29:20;;;;;;;4.07;3.77;;;;;;;12.65;100.00;102493.78;5052025;28;20423;-46
2022/09/01 01:31:51;;;;;;;4.87;4.07;;;;;;;12.69;100.00;102492.44;5051799;28;20465;-48
2022/09/01 01:34:19;;;;;;;4.67;4.27;;;;;;;12.75;100.00;102497.09;5051029;28;20471;-46
2022/09/01 01:36:47;;;;;;;4.70;4.50;;;;;;;12.84;100.00;102505.16;5051969;28;20431;-53
2022/09/01 01:39:18;;;;;;;4.83;4.53;;;;;;;12.95;100.00;102502.13;5051746;28;20966;-46
2022/09/01 01:41:49;;;;;;;4.07;3.97;;;;;;;13.01;100.00;102496.09;5051866;28;20446;-45
2022/09/01 01:44:21;;;;;;;4.60;4.30;;;;;;;13.08;100.00;102505.97;5051018;28;20423;-48
2022/09/01 01:46:51;;;;;;;4.37;4.17;;;;;;;13.16;100.00;102497.94;5051513;28;20424;-52
2022/09/01 01:49:21;;;;;;;4.30;4.20;;;;;;;13.26;100.00;102492.41;5051694;28;20959;-49
2022/09/01 01:51:56;;;;;;;3.97;3.87;;;;;;;13.36;100.00;102497.53;5046637;28;20451;-50
2022/09/01 01:54:30;;;;;;;5.00;4.57;;;;;;;13.45;100.00;102491.16;5041080;28;20816;-51
2022/09/01 01:57:03;;;;;;;4.53;4.33;;;;;;;13.53;100.00;102486.59;5051530;28;20436;-53
2022/09/01 01:59:32;;;;;;;5.00;4.70;;;;;;;13.60;100.00;102487.56;5051691;28;20971;-49
2022/09/01 02:02:02;;;;;;;4.60;4.40;;;;;;;13.69;100.00;102485.69;5051516;28;20447;-49
2022/09/01 02:04:32;;;;;;;4.77;4.33;;;;;;;13.75;100.00;102485.84;5050783;28;20522;-51
2022/09/01 02:07:00;;;;;;;4.67;4.10;;;;;;;13.82;100.00;102484.13;5050923;28;20983;-51
2022/09/01 02:09:28;;;;;;;4.53;4.33;;;;;;;13.91;100.00;102482.25;5051458;28;20431;-48
2022/09/01 02:11:56;;;;;;;5.37;5.00;;;;;;;13.97;100.00;102492.25;5051192;28;20458;-50
2022/09/01 02:14:25;;;;;;;4.77;4.57;;;;;;;14.03;100.00;102488.88;5050734;28;20470;-49
2022/09/01 02:16:54;;;;;;;4.80;4.50;;;;;;;14.08;100.00;102491.84;5051519;28;20431;-49
2022/09/01 02:19:22;;;;;;;4.20;4.10;;;;;;;14.16;100.00;102486.41;5051412;28;20809;-47
2022/09/01 02:21:53;;;;;;;5.13;4.83;;;;;;;14.22;100.00;102496.44;5051242;28;20820;-46
2022/09/01 02:24:20;;;;;;;4.40;4.20;;;;;;;14.30;100.00;102492.88;5050513;28;20435;-46
2022/09/01 02:26:48;;;;;;;4.20;4.10;;;;;;;14.34;100.00;102487.00;5051379;28;20808;-45
2022/09/01 02:29:20;;;;;;;4.67;4.37;;;;;;;14.36;100.00;102493.03;5051359;28;20442;-46
2022/09/01 02:31:51;;;;;;;4.63;4.43;;;;;;;14.40;100.00;102486.28;5051078;28;20840;-48
2022/09/01 02:34:22;;;;;;;4.30;4.10;;;;;;;14.40;100.00;102486.28;5050458;28;20427;-53
2022/09/01 02:36:52;;;;;;;4.20;4.10;;;;;;;14.40;100.00;102480.91;5051069;28;20473;-48
2022/09/01 02:39:23;;;;;;;4.50;4.20;;;;;;;14.43;100.00;102482.41;5051342;28;20811;-46
2022/09/01 02:41:52;;;;;;;4.37;4.10;;;;;;;14.45;100.00;102477.72;5051276;28;20454;-48
2022/09/01 02:44:20;;;;;;;4.33;4.13;;;;;;;14.46;100.00;102471.31;5050405;28;20427;-48
2022/09/01 02:46:50;;;;;;;3.20;3.10;;;;;;;14.48;100.00;102469.31;5051102;28;20442;-49
2022/09/01 02:49:27;;;;;;;3.00;2.90;;;;;;;14.48;100.00;102468.47;5050911;28;20438;-48
2022/09/01 02:52:00;;;;;;;3.27;3.13;;;;;;;14.50;100.00;102461.06;5045222;28;20513;-46
2022/09/01 02:54:29;;;;;;;3.97;3.77;;;;;;;14.49;100.00;102465.59;5040945;28;20538;-49
2022/09/01 02:56:57;;;;;;;3.67;3.47;;;;;;;14.52;100.00;102464.38;5050929;28;20427;-50
2022/09/01 02:59:28;;;;;;;4.33;3.77;;;;;;;14.53;100.00;102463.38;5051168;28;20792;-47
2022/09/01 03:01:57;;;;;;;3.87;3.70;;;;;;;14.54;100.00;102465.06;5050809;28;20924;-51
2022/09/01 03:04:26;;;;;;;4.53;3.50;;;;;;;14.52;100.00;102470.59;5050396;28;20995;-45
2022/09/01 03:06:57;;;;;;;3.43;3.30;;;;;;;14.51;100.00;102465.41;5050869;28;20435;-47
2022/09/01 03:09:25;;;;;;;4.00;3.70;;;;;;;14.50;100.00;102461.88;5050846;28;20427;-49
2022/09/01 03:11:54;;;;;;;3.60;3.30;;;;;;;14.50;100.00;102466.41;5050689;28;20446;-48
2022/09/01 03:14:23;;;;;;;3.30;3.10;;;;;;;14.48;100.00;102468.47;5050170;28;20457;-54
2022/09/01 03:16:51;;;;;;;3.47;3.37;;;;;;;14.48;100.00;102472.00;5050287;28;20859;-48
2022/09/01 03:19:20;;;;;;;3.23;3.03;;;;;;;14.48;100.00;102468.47;5053093;28;20960;-51
2022/09/01 03:21:47;;;;;;;3.60;3.40;;;;;;;14.47;100.00;102475.66;5053614;28;20451;-50
2022/09/01 03:24:17;;;;;;;3.73;3.53;;;;;;;14.48;100.00;102468.47;5054271;28;20446;-50
2022/09/01 03:26:48;;;;;;;4.00;3.80;;;;;;;14.48;100.00;102472.00;5053944;28;20459;-51
2022/09/01 03:29:16;;;;;;;4.90;4.60;;;;;;;14.50;100.00;102469.94;5054187;28;20912;-52
2022/09/01 03:31:45;;;;;;;4.83;4.43;;;;;;;14.52;100.00;102469.75;5054096;28;20463;-49
2022/09/01 03:34:12;;;;;;;5.33;4.10;;;;;;;14.56;100.00;102469.22;5053976;28;20431;-47
2022/09/01 03:36:48;;;;;;;3.93;3.83;;;;;;;14.58;100.00;102461.81;5053461;28;20489;-48
2022/09/01 03:39:17;;;;;;;3.60;3.40;;;;;;;14.63;100.00;102466.66;5053910;28;20530;-48
2022/09/01 03:41:45;;;;;;;3.40;3.20;;;;;;;14.63;100.00;102470.19;5054060;28;20460;-46
2022/09/01 03:44:15;;;;;;;4.13;3.93;;;;;;;14.64;100.00;102468.31;5053788;28;20431;-50
2022/09/01 03:46:43;;;;;;;3.80;3.70;;;;;;;14.66;100.00;102475.19;5053577;28;20439;-49
2022/09/01 03:49:14;;;;;;;4.30;4.00;;;;;;;14.66;100.00;102471.66;5053765;28;20423;-53
2022/09/01 03:51:44;;;;;;;4.07;3.80;;;;;;;14.66;100.00;102467.13;5049565;28;20791;-46
2022/09/01 03:54:12;;;;;;;3.57;3.40;;;;;;;14.66;100.00;102468.97;5042377;28;20431;-48
2022/09/01 03:56:42;;;;;;;4.03;3.83;;;;;;;14.63;100.00;102466.66;5053149;28;20497;-48
2022/09/01 03:59:15;;;;;;;4.20;3.97;;;;;;;14.60;100.00;102467.84;5053783;28;20427;-48
2022/09/01 04:01:44;;;;;;;3.73;3.53;;;;;;;14.59;100.00;102476.06;5053687;28;20462;-57
2022/09/01 04:04:13;;;;;;;4.17;3.87;;;;;;;14.59;100.00;102468.03;5053149;28;20889;-50
2022/09/01 04:06:44;;;;;;;3.70;3.60;;;;;;;14.58;100.00;102474.41;5053460;28;20505;-47
2022/09/01 04:09:12;;;;;;;3.87;3.67;;;;;;;14.56;100.00;102477.28;5053626;28;20778;-45
2022/09/01 04:11:40;;;;;;;3.27;3.07;;;;;;;14.57;100.00;102478.97;5053561;28;20462;-46
2022/09/01 04:14:12;;;;;;;3.40;3.30;;;;;;;14.58;100.00;102471.72;5053339;28;20525;-46
2022/09/01 04:19:26;;;;;;;5.57;5.20;;;;;;;14.61;100.00;102474.03;5053838;28;20851;-46
2022/09/01 04:21:58;;;;;;;3.70;3.60;;;;;;;14.66;100.00;102477.88;5053208;28;20439;-53
2022/09/01 04:24:28;;;;;;;3.97;3.77;;;;;;;14.74;100.00;102475.09;5052725;28;20430;-55
2022/09/01 04:27:00;;;;;;;3.67;3.47;;;;;;;14.80;100.00;102479.75;5053328;28;20420;-53
2022/09/01 04:29:30;;;;;;;3.80;3.53;;;;;;;14.87;100.00;102483.34;5052594;28;20418;-52
2022/09/01 04:32:02;;;;;;;3.50;3.40;;;;;;;14.95;100.00;102474.41;5052923;28;20459;-52
2022/09/01 04:34:35;;;;;;;3.07;2.97;;;;;;;15.00;100.00;102482.72;5052506;28;20489;-53
2022/09/01 04:37:08;;;;;;;3.23;3.13;;;;;;;15.06;100.00;102483.84;5053073;28;20466;-51
2022/09/01 04:39:37;;;;;;;3.23;3.13;;;;;;;15.11;100.00;102479.63;5052849;28;20925;-51
2022/09/01 04:42:07;;;;;;;4.27;4.00;;;;;;;15.15;100.00;102480.91;5052859;28;20825;-49
2022/09/01 04:44:36;;;;;;;3.93;3.73;;;;;;;15.20;100.00;102478.47;5052189;28;20436;-51
2022/09/01 04:47:10;;;;;;;3.77;3.47;;;;;;;15.25;100.00;102472.56;5052759;28;20434;-48
2022/09/01 04:49:37;;;;;;;3.83;3.40;;;;;;;15.30;100.00;102475.53;5047243;28;20451;-46
2022/09/01 04:52:06;;;;;;;3.67;3.57;;;;;;;15.34;100.00;102477.66;5036410;28;20462;-51
2022/09/01 04:54:35;;;;;;;4.20;4.00;;;;;;;15.38;100.00;102481.63;5043762;28;20438;-47
2022/09/01 04:57:04;;;;;;;3.47;3.37;;;;;;;15.42;100.00;102487.47;5052675;28;20474;-49
2022/09/01 04:59:32;;;;;;;4.30;4.00;;;;;;;15.45;100.00;102479.03;5052516;28;20428;-48
2022/09/01 05:02:00;;;;;;;3.70;3.53;;;;;;;15.48;100.00;102479.53;5052369;28;20446;-54
2022/09/01 05:04:32;;;;;;;3.30;3.10;;;;;;;15.51;100.00;102486.41;5051688;28;20438;-47
2022/09/01 05:07:01;;;;;;;3.30;3.10;;;;;;;15.55;100.00;102485.00;5052576;28;20427;-46
2022/09/01 05:09:34;;;;;;;3.60;3.37;;;;;;;15.58;100.00;102478.41;5052215;28;20437;-53
2022/09/01 05:12:09;;;;;;;3.20;3.00;;;;;;;15.61;100.00;102481.56;5052069;28;20976;-51
2022/09/01 05:14:45;;;;;;;3.40;3.20;;;;;;;15.65;100.00;102479.34;5051746;28;20469;-47
2022/09/01 05:17:16;;;;;;;3.30;3.20;;;;;;;15.66;100.00;102476.47;5051950;28;20471;-52
2022/09/01 05:19:46;;;;;;;3.33;3.23;;;;;;;15.69;100.00;102480.63;5052351;28;20434;-54
2022/09/01 05:22:15;;;;;;;3.20;3.00;;;;;;;15.70;100.00;102479.63;5051884;28;20514;-56
2022/09/01 05:24:44;;;;;;;4.10;3.90;;;;;;;15.74;100.00;102476.34;5051257;28;20474;-52
2022/09/01 05:27:13;;;;;;;3.73;3.53;;;;;;;15.78;100.00;102474.94;5051951;28;20766;-50
2022/09/01 05:29:40;;;;;;;3.90;3.80;;;;;;;15.81;100.00;102487.19;5051756;28;20439;-54
2022/09/01 05:32:08;;;;;;;4.17;3.97;;;;;;;15.85;100.00;102489.31;5051447;28;20467;-54
2022/09/01 05:34:37;;;;;;;3.70;3.50;;;;;;;15.85;100.00;102480.41;5051319;28;20538;-48
2022/09/01 05:37:07;;;;;;;4.13;3.87;;;;;;;15.85;100.00;102483.94;5051753;28;21027;-54
2022/09/01 05:39:36;;;;;;;6.20;3.77;;;;;;;15.88;100.00;102478.19;5051692;28;20437;-52
2022/09/01 05:42:06;;;;;;;4.00;3.80;;;;;;;15.92;100.00;102487.53;5050828;28;20792;-51
2022/09/01 05:44:34;;;;;;;4.47;4.03;;;;;;;15.89;100.00;102476.31;5051266;28;20467;-52
2022/09/01 05:47:04;;;;;;;3.93;3.67;;;;;;;15.96;100.00;102479.91;5052956;22;20492;-48
2022/09/01 05:49:32;;;;;;;3.70;3.50;;;;;;;15.96;100.00;102488.00;5032032;28;20478;-46
2022/09/01 05:52:00;;;;;;;4.20;3.90;;;;;;;15.98;100.00;102488.63;5025325;28;20898;-50
2022/09/01 05:54:27;;;;;;;3.50;3.30;;;;;;;16.05;100.00;102492.25;5040777;28;20440;-43
2022/09/01 05:56:57;;;;;;;3.50;3.27;;;;;;;16.36;100.00;102492.78;5051371;28;20561;-45
2022/09/01 05:59:52;;;;;;;4.07;3.43;;;;;;;16.47;100.00;102486.88;5051759;28;20439;-46
2022/09/01 06:02:21;;;;;;;3.60;3.30;;;;;;;16.61;100.00;102487.84;5051819;28;20426;-44
2022/09/01 06:04:49;;;;;;;3.30;3.10;;;;;;;16.73;100.00;102490.84;5051136;28;20489;-45
2022/09/01 06:07:17;;;;;;;4.00;3.70;;;;;;;16.81;100.00;102496.94;5051403;28;20447;-43
2022/09/01 06:09:52;;;;;;;3.30;3.10;;;;;;;16.93;100.00;102492.69;5051727;28;20464;-46
2022/09/01 06:12:22;;;;;;;3.40;3.30;;;;;;;17.08;100.00;102488.00;5051344;28;20435;-45
2022/09/01 06:14:53;;;;;;;3.63;3.37;;;;;;;17.26;100.00;102494.78;5051149;28;20885;-45
2022/09/01 06:17:24;;;;;;;3.53;3.33;;;;;;;17.45;100.00;102489.50;5051234;28;20470;-46
2022/09/01 06:19:54;;;;;;;3.20;3.00;;;;;;;17.56;100.00;102494.34;5051654;28;20497;-45
2022/09/01 06:22:22;;;;;;;3.20;3.10;;;;;;;17.62;99.79;102490.84;5051057;28;20432;-45
2022/09/01 06:24:53;;;;;;;3.63;3.50;;;;;;;17.56;97.61;102494.34;5050979;28;20992;-45
2022/09/01 06:27:28;;;;;;;3.67;3.47;;;;;;;17.57;97.41;102492.47;5051357;28;20456;-47
2022/09/01 06:29:57;;;;;;;5.00;2.93;;;;;;;17.59;97.32;102495.84;5051244;28;20859;-46
2022/09/01 06:32:25;;;;;;;3.80;3.60;;;;;;;17.59;96.96;102502.03;5050927;28;20441;-48
2022/09/01 06:34:56;;;;;;;3.90;3.57;;;;;;;17.55;96.96;102498.09;5050841;28;20451;-44
2022/09/01 06:37:24;;;;;;;3.70;3.50;;;;;;;17.45;98.52;102496.75;5051025;28;21021;-46
2022/09/01 06:39:52;;;;;;;3.30;3.20;;;;;;;17.71;100.00;102502.31;5051178;28;20485;-46
2022/09/01 06:42:21;;;;;;;4.80;3.50;;;;;;;17.68;100.00;102495.44;5050868;28;20423;-47
2022/09/01 06:44:49;;;;;;;3.67;3.47;;;;;;;17.77;99.44;102500.69;5050797;28;20820;-46
2022/09/01 06:47:18;;;;;;;3.60;3.40;;;;;;;17.85;98.79;102503.19;5050875;28;20477;-48
2022/09/01 06:49:46;;;;;;;3.67;3.40;;;;;;;18.00;99.18;102501.19;5051041;28;20431;-48
2022/09/01 06:52:14;;;;;;;3.70;3.10;;;;;;;18.22;99.17;102511.59;5044185;28;20436;-45
2022/09/01 06:54:42;;;;;;;3.93;3.30;;;;;;;18.36;96.74;102506.25;5045984;28;20516;-47
2022/09/01 06:57:10;;;;;;;4.40;3.00;;;;;;;18.48;94.99;102507.31;5054569;28;20475;-45
2022/09/01 06:59:59;;;;;;;3.00;2.80;;;;;;;18.54;93.22;102510.06;5054590;28;20435;-48
2022/09/01 07:02:31;;;;;;;3.30;3.20;;;;;;;18.66;92.77;102511.09;5054446;28;20496;-46
2022/09/01 07:05:01;;;;;;;3.37;2.93;;;;;;;18.75;91.22;102506.31;5054259;28;20839;-45
2022/09/01 07:07:33;;;;;;;3.27;3.07;;;;;;;18.83;89.65;102516.09;5054242;28;20447;-49
2022/09/01 07:10:21;;;;;;;2.80;2.70;;;;;;;18.96;88.48;102510.69;5054457;28;20441;-46
2022/09/01 07:12:49;;;;;;;2.70;2.60;;;;;;;18.96;85.93;102510.69;5054326;28;20529;-47
2022/09/01 07:15:34;;;;;;;3.13;2.93;;;;;;;19.06;86.04;102508.38;5054054;28;20831;-45
2022/09/01 07:18:24;;;;;;;3.07;2.97;;;;;;;19.29;86.67;102508.78;5054125;28;21018;-45
2022/09/01 07:20:55;;;;;;;3.00;2.70;;;;;;;19.50;86.67;102507.72;5054271;28;20434;-45
2022/09/01 07:23:43;;;;;;;2.90;2.70;;;;;;;19.63;85.35;102507.63;5054333;28;20430;-45
2022/09/01 07:26:32;;;;;;;3.37;3.27;;;;;;;19.62;83.52;102506.81;5053636;28;20470;-45
2022/09/01 07:29:01;;;;;;;2.87;2.60;;;;;;;19.57;81.54;102513.91;5054399;28;20427;-47
2022/09/01 07:31:37;;;;;;;2.93;2.73;;;;;;;19.59;82.28;102511.84;5054280;28;20492;-47
2022/09/01 07:34:27;;;;;;;3.00;2.90;;;;;;;19.57;81.64;102512.03;5053649;28;20435;-45
2022/09/01 07:37:14;;;;;;;3.00;2.90;;;;;;;19.57;81.77;102511.19;5054132;28;20478;-47
2022/09/01 07:40:02;;;;;;;3.53;3.33;;;;;;;19.63;82.21;102505.78;5054290;28;20426;-49
2022/09/01 07:42:56;;;;;;;3.73;3.10;;;;;;;19.70;81.53;102505.75;5053537;28;20431;-48
2022/09/01 07:45:46;;;;;;;3.20;3.10;;;;;;;19.83;82.12;102511.94;5053303;28;20816;-47
2022/09/01 07:48:19;;;;;;;3.40;3.20;;;;;;;20.00;81.98;102514.16;5054008;28;20427;-47
2022/09/01 07:51:08;;;;;;;2.90;2.80;;;;;;;20.14;81.45;102519.28;5053900;28;20447;-46
2022/09/01 07:53:56;;;;;;;3.20;3.00;;;;;;;20.28;81.11;102522.81;5036340;28;20420;-46
2022/09/01 07:56:25;;;;;;;3.20;2.80;;;;;;;20.35;80.33;102518.97;5051617;28;20462;-45
2022/09/01 07:58:53;;;;;;;3.77;3.67;;;;;;;20.49;79.83;102518.91;5053611;28;20470;-45
2022/09/01 08:01:22;;;;;;;3.50;3.30;;;;;;;20.57;78.62;102518.63;5053687;28;20936;-49
2022/09/01 08:03:53;;;;;;;3.47;3.37;;;;;;;20.68;78.18;102518.75;5052399;28;20435;-45
2022/09/01 08:06:25;;;;;;;3.70;3.60;;;;;;;20.83;77.30;102519.25;5053257;28;20852;-49
2022/09/01 08:08:56;;;;;;;3.20;3.10;;;;;;;21.01;77.45;102526.59;5053808;28;20718;-47
2022/09/01 08:11:27;;;;;;;4.70;3.70;;;;;;;21.16;76.22;102524.41;5053555;28;20462;-48
2022/09/01 08:14:15;;;;;;;4.17;3.97;;;;;;;21.50;75.95;102521.13;5053289;28;20431;-47
2022/09/01 08:16:44;;;;;;;3.40;3.20;;;;;;;22.06;75.57;102522.78;5053058;28;20986;-49
2022/09/01 08:19:20;;;;;;;4.27;4.07;;;;;;;22.63;71.36;102512.31;5053357;28;20470;-47
2022/09/01 08:21:49;;;;;;;4.63;4.50;;;;;;;22.95;69.08;102509.06;5053143;28;20952;-47
2022/09/01 08:24:18;;;;;;;5.43;5.23;;;;;;;23.33;66.98;102511.28;5052690;28;20431;-46
2022/09/01 08:26:45;;;;;;;5.60;5.37;;;;;;;23.46;62.02;102507.53;5052854;28;20450;-47
2022/09/01 08:29:13;;;;;;;6.47;6.27;;;;;;;23.61;60.78;102516.00;5052995;28;20946;-47
2022/09/01 08:31:40;;;;;;;5.30;5.20;;;;;;;24.00;58.85;102523.38;5053118;28;20452;-48
2022/09/01 08:34:11;;;;;;;4.80;4.60;;;;;;;24.33;56.96;102511.75;5052906;28;20832;-46
2022/09/01 08:36:39;;;;;;;5.13;4.83;;;;;;;24.48;54.44;102522.09;5052374;28;20462;-46
2022/09/01 08:39:08;;;;;;;4.33;4.23;;;;;;;24.29;50.63;102518.75;5052718;28;20843;-45
2022/09/01 08:41:59;;;;;;;3.70;3.60;;;;;;;24.48;50.58;102514.75;5053057;28;20431;-47
2022/09/01 08:44:37;;;;;;;3.40;3.27;;;;;;;24.56;50.95;102514.31;5052392;28;20423;-47
2022/09/01 08:47:09;;;;;;;3.73;3.50;;;;;;;24.30;49.03;102522.31;5052648;28;20469;-47
2022/09/01 08:49:45;;;;;;;3.80;3.50;;;;;;;24.14;47.83;102521.19;5052566;28;20441;-50
2022/09/01 08:52:22;;;;;;;3.30;3.10;;;;;;;24.30;50.35;102525.88;5044550;28;20450;-49
2022/09/01 08:55:00;;;;;;;3.70;3.50;;;;;;;24.44;50.62;102519.03;5044016;28;20464;-46
2022/09/01 08:57:32;;;;;;;3.30;3.20;;;;;;;23.83;49.71;102521.66;5052564;28;20450;-47
2022/09/01 09:00:00;;;;;;;5.00;4.80;;;;;;;23.86;51.44;102530.16;5052351;28;20471;-48
2022/09/01 09:02:43;;;;;;;3.80;3.70;;;;;;;23.47;51.70;102526.34;5052378;28;20439;-47
2022/09/01 09:05:28;;;;;;;3.97;3.77;;;;;;;23.08;54.53;102525.16;5051916;28;20459;-46
2022/09/01 09:08:13;;;;;;;3.37;3.27;;;;;;;23.14;55.47;102521.50;5052489;28;20438;-45
2022/09/01 09:10:55;;;;;;;3.10;3.00;;;;;;;23.58;55.03;102524.66;5052534;28;20422;-48
2022/09/01 09:13:30;;;;;;;3.60;3.40;;;;;;;23.74;51.85;102523.09;5052244;28;20815;-48
2022/09/01 09:16:01;;;;;;;3.73;3.40;;;;;;;23.23;52.17;102521.13;5051683;28;20470;-49
2022/09/01 09:18:42;;;;;;;3.80;3.60;;;;;;;23.21;53.97;102523.28;5052044;28;20470;-48
2022/09/01 09:21:29;;;;;;;3.97;3.60;;;;;;;23.11;55.13;102511.09;5052289;28;20439;-49
2022/09/01 09:24:03;;;;;;;3.33;3.23;;;;;;;23.03;55.14;102510.59;5051944;28;20438;-52
2022/09/01 09:26:33;;;;;;;3.93;3.83;;;;;;;23.01;55.28;102518.16;5051516;28;20496;-48
2022/09/01 09:29:16;;;;;;;4.10;3.83;;;;;;;22.91;56.19;102507.88;5051989;28;20526;-46
2022/09/01 09:31:47;;;;;;;3.33;3.23;;;;;;;22.77;56.33;102505.63;5052169;28;20435;-46
2022/09/01 09:34:33;;;;;;;3.70;3.50;;;;;;;22.70;55.83;102511.16;5051157;28;20529;-46
2022/09/01 09:37:17;;;;;;;3.40;3.30;;;;;;;22.56;55.34;102517.84;5051895;28;20815;-46
2022/09/01 09:39:45;;;;;;;3.60;3.40;;;;;;;22.45;56.83;102503.19;5051644;28;20462;-46
2022/09/01 09:42:14;;;;;;;3.20;3.00;;;;;;;22.55;56.61;102511.56;5051803;28;20433;-47
2022/09/01 09:44:45;;;;;;;3.00;2.90;;;;;;;23.12;54.58;102506.44;5051367;28;20835;-47
2022/09/01 09:47:34;;;;;;;4.00;3.73;;;;;;;23.44;52.18;102510.50;5051420;28;20549;-46
2022/09/01 09:50:16;;;;;;;2.80;2.70;;;;;;;23.22;50.34;102501.25;5051425;28;20914;-46
2022/09/01 09:52:45;;;;;;;3.10;2.90;;;;;;;23.10;48.62;102500.44;5043541;28;20427;-48
2022/09/01 09:55:27;;;;;;;2.97;2.87;;;;;;;22.95;49.64;102502.78;5042895;28;20458;-48
2022/09/01 09:57:59;;;;;;;2.70;2.60;;;;;;;22.76;48.67;102495.81;5051614;28;20431;-45
2022/09/01 10:00:29;;;;;;;3.37;3.27;;;;;;;22.88;49.59;102500.19;5051328;28;20470;-45
2022/09/01 10:03:01;;;;;;;3.20;3.10;;;;;;;23.17;50.71;102487.53;5051623;28;20481;-48
2022/09/01 10:05:39;;;;;;;3.10;3.00;;;;;;;23.22;48.56;102487.63;5051047;28;20466;-45
2022/09/01 10:08:10;;;;;;;2.97;2.77;;;;;;;23.06;48.16;102494.63;5051543;28;20847;-46
2022/09/01 10:10:41;;;;;;;3.27;3.07;;;;;;;22.74;47.35;102489.75;5051423;28;20816;-45
2022/09/01 10:13:13;;;;;;;2.90;2.80;;;;;;;22.14;49.63;102491.72;5051410;28;20847;-46
2022/09/01 10:15:44;;;;;;;3.10;2.80;;;;;;;21.77;50.38;102497.22;5050851;28;20493;-46
2022/09/01 10:18:15;;;;;;;3.43;3.23;;;;;;;22.07;50.14;102488.28;5051243;28;20433;-45
2022/09/01 10:20:54;;;;;;;3.07;2.97;;;;;;;22.46;50.57;102495.84;5051376;28;20426;-47
2022/09/01 10:23:23;;;;;;;3.10;2.90;;;;;;;22.53;49.02;102489.25;5050919;28;20434;-46
2022/09/01 10:25:56;;;;;;;3.93;3.60;;;;;;;22.72;48.77;102491.91;5050630;28;20462;-47
2022/09/01 10:28:26;;;;;;;3.30;3.20;;;;;;;22.76;47.34;102484.94;5054762;28;20444;-48
2022/09/01 10:30:55;;;;;;;3.80;3.60;;;;;;;22.83;46.69;102480.19;5055123;28;20438;-45
2022/09/01 10:33:23;;;;;;;3.80;3.70;;;;;;;22.89;46.88;102490.13;5055014;28;20431;-45
2022/09/01 10:35:53;;;;;;;3.80;3.60;;;;;;;23.05;47.99;102481.28;5054500;28;20470;-46
2022/09/01 10:38:23;;;;;;;3.00;2.90;;;;;;;23.10;46.53;102481.38;5055415;28;20437;-48
2022/09/01 10:41:05;;;;;;;3.40;3.30;;;;;;;23.27;45.24;102485.00;5055232;28;20478;-46
2022/09/01 10:43:40;;;;;;;3.60;3.50;;;;;;;23.26;45.33;102486.09;5055174;28;20457;-49
2022/09/01 10:46:43;;;;;;;3.70;3.53;;;;;;;22.59;46.06;102482.03;5054280;28;20469;-46
2022/09/01 10:49:52;;;;;;;3.97;3.67;;;;;;;22.22;46.35;102491.41;5055227;28;20423;-46
2022/09/01 10:53:01;;;;;;;3.50;3.30;;;;;;;22.32;46.55;102480.78;5022338;28;20439;-46
2022/09/01 10:55:45;;;;;;;2.83;2.73;;;;;;;22.64;44.80;102484.88;5046819;28;20478;-46
2022/09/01 10:58:29;;;;;;;3.10;2.90;;;;;;;22.72;44.74;102486.47;5056625;28;20509;-45
2022/09/01 11:01:57;;;;;;;3.50;3.30;;;;;;;23.13;45.24;102478.19;5054588;28;20437;-49
2022/09/01 11:05:10;;;;;;;2.90;2.80;;;;;;;23.21;43.70;102464.19;5054175;28;20836;-48
2022/09/01 11:07:39;;;;;;;2.80;2.70;;;;;;;23.37;44.58;102473.53;5054584;28;20461;-47
2022/09/01 11:10:39;;;;;;;2.97;2.77;;;;;;;23.64;42.74;102480.13;5054404;28;20437;-49
2022/09/01 11:13:32;;;;;;;2.90;2.80;;;;;;;23.63;41.79;102465.69;5054411;28;20434;-46
2022/09/01 11:16:27;;;;;;;3.17;3.07;;;;;;;23.89;41.50;102466.19;5050384;28;20545;-46
2022/09/01 11:19:32;;;;;;;3.40;3.30;;;;;;;23.97;42.51;102469.34;5054356;28;20477;-48
2022/09/01 11:22:16;;;;;;;3.13;3.03;;;;;;;24.03;42.31;102471.09;5054709;28;20441;-45
2022/09/01 11:24:48;;;;;;;3.00;2.90;;;;;;;23.77;43.49;102479.03;5053984;28;20454;-47
2022/09/01 11:28:15;;;;;;;2.67;2.57;;;;;;;23.64;43.34;102472.78;5054283;28;20450;-47
2022/09/01 11:30:53;;;;;;;2.90;2.80;;;;;;;23.63;43.89;102467.56;4992466;28;20899;-47
2022/09/01 11:33:34;;;;;;;2.73;2.63;;;;;;;23.84;43.74;102468.78;4992283;28;20952;-47
2022/09/01 11:36:04;;;;;;;2.57;2.47;;;;;;;24.02;42.64;102472.16;5029665;28;20458;-47
2022/09/01 11:38:45;;;;;;;3.00;2.90;;;;;;;24.12;42.39;102464.22;5052877;28;20438;-48
2022/09/01 11:41:22;;;;;;;2.97;2.60;;;;;;;24.02;42.53;102463.97;5054206;28;20540;-48
2022/09/01 11:43:54;;;;;;;3.47;3.20;;;;;;;23.94;43.06;102477.19;5053855;28;20431;-46
2022/09/01 11:46:26;;;;;;;2.63;2.53;;;;;;;23.59;43.68;102472.69;5053175;28;20471;-48
2022/09/01 11:48:57;;;;;;;3.20;3.00;;;;;;;23.70;43.33;102479.16;5053833;28;20469;-48
2022/09/01 11:51:25;;;;;;;3.00;2.80;;;;;;;23.45;43.49;102479.47;5052044;28;20430;-49
2022/09/01 11:53:59;;;;;;;2.70;2.60;;;;;;;23.45;43.05;102465.00;5041728;28;20925;-45
2022/09/01 11:56:29;;;;;;;3.07;2.97;;;;;;;23.38;43.35;102473.31;5052303;28;20834;-46